createdAt,value
2022-12-16T00:01:22.796Z,96043.00
2022-12-16T00:06:26.294Z,96044.00
2022-12-16T00:11:27.819Z,96049.00
2022-12-16T00:16:29.064Z,96050.00
2022-12-16T00:21:30.031Z,96053.00
2022-12-16T00:26:31.015Z,96056.00
2022-12-16T00:31:32.287Z,96063.00
2022-12-16T00:36:33.729Z,96059.00
2022-12-16T00:41:34.576Z,96057.00
2022-12-16T00:46:35.464Z,96045.00
2022-12-16T00:51:36.194Z,96050.00
2022-12-16T00:56:36.990Z,96042.00
2022-12-16T01:01:37.911Z,96044.00
2022-12-16T01:06:39.456Z,96038.00
2022-12-16T01:11:40.163Z,96048.00
2022-12-16T01:16:41.091Z,96056.00
2022-12-16T01:21:41.960Z,96059.00
2022-12-16T01:26:42.757Z,96063.00
2022-12-16T01:31:43.758Z,96065.00
2022-12-16T01:36:44.981Z,96070.00
2022-12-16T01:41:45.749Z,96076.00
2022-12-16T01:46:53.152Z,96080.00
2022-12-16T01:52:01.629Z,96092.00
2022-12-16T01:57:07.945Z,96092.00
2022-12-16T02:02:10.113Z,96091.00
2022-12-16T02:07:11.042Z,96089.00
2022-12-16T02:12:26.719Z,96096.00
2022-12-16T02:17:37.685Z,96091.00
2022-12-16T02:23:26.626Z,96083.00
2022-12-16T02:29:04.976Z,96082.00
2022-12-16T02:34:23.731Z,96087.00
2022-12-16T02:39:41.023Z,96092.00
2022-12-16T02:51:32.764Z,96080.00
2022-12-16T02:56:49.718Z,96083.00
2022-12-16T03:02:04.606Z,96085.00
2022-12-16T03:07:12.578Z,96083.00
2022-12-16T03:12:17.308Z,96080.00
2022-12-16T03:17:21.240Z,96075.00
2022-12-16T03:22:27.111Z,96082.00
2022-12-16T03:28:15.950Z,96082.00
2022-12-16T03:33:29.736Z,96085.00
2022-12-16T03:38:33.013Z,96087.00
2022-12-16T03:43:34.400Z,96095.00
2022-12-16T03:48:35.986Z,96095.00
2022-12-16T03:53:36.704Z,96102.00
2022-12-16T03:58:41.759Z,96105.00
2022-12-16T04:03:42.540Z,96113.00
2022-12-16T04:08:47.531Z,96114.00
2022-12-16T04:14:06.935Z,96121.00
2022-12-16T04:19:37.624Z,96124.00
2022-12-16T04:24:38.567Z,96120.00
2022-12-16T04:30:18.244Z,96135.00
2022-12-16T04:35:37.953Z,96140.00
2022-12-16T04:40:57.295Z,96144.00
2022-12-16T04:46:16.859Z,96152.00
2022-12-16T04:51:36.386Z,96157.00
2022-12-16T04:56:55.859Z,96157.00
2022-12-16T05:02:15.620Z,96164.00
2022-12-16T05:07:38.462Z,96177.00
2022-12-16T05:12:58.079Z,96180.00
2022-12-16T05:18:17.479Z,96191.00
2022-12-16T05:23:37.195Z,96195.00
2022-12-16T05:28:56.640Z,96210.00
2022-12-16T05:34:16.258Z,96220.00
2022-12-16T05:39:35.709Z,96226.00
2022-12-16T05:44:55.288Z,96239.00
2022-12-16T05:50:14.813Z,96249.00
2022-12-16T05:55:35.899Z,96266.00
2022-12-16T06:00:55.507Z,96279.00
2022-12-16T06:06:15.428Z,96280.00
2022-12-16T06:11:34.883Z,96293.00
2022-12-16T06:16:54.390Z,96300.00
2022-12-16T06:22:13.753Z,96300.00
2022-12-16T06:27:33.175Z,96300.00
2022-12-16T06:32:52.644Z,96297.00
2022-12-16T06:38:12.317Z,96286.00
2022-12-16T06:43:32.344Z,96285.00
2022-12-16T06:48:52.447Z,96302.00
2022-12-16T06:54:12.197Z,96311.00
2022-12-16T06:59:31.972Z,96330.00
2022-12-16T07:04:51.474Z,96347.00
2022-12-16T07:10:10.858Z,96367.00
2022-12-16T07:15:30.536Z,96371.00
2022-12-16T07:20:49.978Z,96387.00
2022-12-16T07:26:10.556Z,96391.00
2022-12-16T07:31:29.986Z,96395.00
2022-12-16T07:36:49.405Z,96395.00
2022-12-16T07:42:08.748Z,96408.00
2022-12-16T07:47:28.146Z,96409.00
2022-12-16T07:52:47.678Z,96434.00
2022-12-16T07:58:09.119Z,96434.00
2022-12-16T08:03:28.609Z,96436.00
2022-12-16T08:08:47.820Z,96444.00
2022-12-16T08:14:07.517Z,96449.00
2022-12-16T08:19:27.513Z,96457.00
2022-12-16T08:24:53.297Z,96454.00
2022-12-16T08:30:13.242Z,96474.00
2022-12-16T08:35:32.639Z,96483.00
2022-12-16T08:40:52.091Z,96491.00
2022-12-16T08:46:15.299Z,96495.00
2022-12-16T08:51:35.115Z,96509.00
2022-12-16T08:56:54.556Z,96517.00
2022-12-16T09:02:15.326Z,96523.00
2022-12-16T09:07:35.659Z,96526.00
2022-12-16T09:12:55.117Z,96533.00
2022-12-16T09:18:15.215Z,96544.00
2022-12-16T09:23:34.989Z,96543.00
2022-12-16T09:28:54.991Z,96545.00
2022-12-16T09:34:14.641Z,96556.00
2022-12-16T09:39:34.137Z,96564.00
2022-12-16T09:45:28.911Z,96569.00
2022-12-16T09:50:50.005Z,96567.00
2022-12-16T09:56:10.528Z,96579.00
2022-12-16T10:01:31.067Z,96569.00
2022-12-16T10:06:59.959Z,96581.00
2022-12-16T10:14:00.882Z,96576.00
2022-12-16T10:21:24.722Z,96585.00
2022-12-16T10:27:08.376Z,96592.00
2022-12-16T10:32:56.307Z,96592.00
2022-12-16T10:38:16.509Z,96574.00
2022-12-16T10:45:19.823Z,96594.00
2022-12-16T10:50:39.674Z,96594.00
2022-12-16T10:59:13.961Z,96609.00
2022-12-16T11:08:11.311Z,96606.00
2022-12-16T11:13:53.261Z,96610.00
2022-12-16T11:19:12.742Z,96607.00
2022-12-16T11:24:38.143Z,96603.00
2022-12-16T11:30:50.215Z,96614.00
2022-12-16T11:36:12.659Z,96610.00
2022-12-16T11:41:50.303Z,96608.00
2022-12-16T11:47:10.434Z,96623.00
2022-12-16T11:52:37.784Z,96632.00
2022-12-16T11:58:11.140Z,96639.00
2022-12-16T12:03:40.905Z,96645.00
2022-12-16T12:10:07.033Z,96645.00
2022-12-16T12:16:26.776Z,96650.00
2022-12-16T12:22:10.162Z,96650.00
2022-12-16T12:29:11.229Z,96658.00
2022-12-16T12:34:53.479Z,96673.00
2022-12-16T12:40:41.414Z,96672.00
2022-12-16T12:46:31.389Z,96676.00
2022-12-16T12:54:57.949Z,96687.00
2022-12-16T13:00:38.486Z,96687.00
2022-12-16T13:05:59.255Z,96688.00
2022-12-16T13:11:35.301Z,96693.00
2022-12-16T13:17:18.930Z,96687.00
2022-12-16T13:22:52.038Z,96692.00
2022-12-16T13:28:14.531Z,96690.00
2022-12-16T13:36:15.621Z,96704.00
2022-12-16T13:42:09.278Z,96717.00
2022-12-16T13:47:51.196Z,96717.00
2022-12-16T13:53:15.719Z,96725.00
2022-12-16T13:58:56.316Z,96734.00
2022-12-16T14:04:18.005Z,96722.00
2022-12-16T14:09:45.875Z,96748.00
2022-12-16T14:15:23.400Z,96754.00
2022-12-16T14:20:53.554Z,96764.00
2022-12-16T14:26:17.248Z,96774.00
2022-12-16T14:31:50.680Z,96777.00
2022-12-16T14:37:12.047Z,96785.00
2022-12-16T14:42:43.110Z,96787.00
2022-12-16T14:49:35.806Z,96796.00
2022-12-16T14:55:01.077Z,96801.00
2022-12-16T15:00:56.738Z,96815.00
2022-12-16T15:06:16.736Z,96819.00
2022-12-16T15:11:38.648Z,96834.00
2022-12-16T15:17:00.388Z,96824.00
2022-12-16T15:22:20.150Z,96834.00
2022-12-16T15:27:44.133Z,96844.00
2022-12-16T15:33:10.722Z,96853.00
2022-12-16T15:39:13.730Z,96864.00
2022-12-16T15:44:45.271Z,96867.00
2022-12-16T15:50:06.715Z,96877.00
2022-12-16T15:56:02.568Z,96891.00
2022-12-16T16:01:26.369Z,96892.00
2022-12-16T16:06:46.333Z,96898.00
2022-12-16T16:12:05.654Z,96905.00
2022-12-16T16:17:43.445Z,96902.00
2022-12-16T16:23:02.807Z,96915.00
2022-12-16T16:28:22.740Z,96927.00
2022-12-16T16:33:42.216Z,96927.00
2022-12-16T16:39:01.784Z,96925.00
2022-12-16T16:44:21.218Z,96929.00
2022-12-16T16:50:05.018Z,96939.00
2022-12-16T16:55:25.896Z,96941.00
2022-12-16T17:00:45.964Z,96950.00
2022-12-16T17:06:05.630Z,96958.00
2022-12-16T17:11:36.102Z,96969.00
2022-12-16T17:16:55.530Z,96965.00
2022-12-16T17:22:14.950Z,96976.00
2022-12-16T17:27:37.818Z,96982.00
2022-12-16T17:32:57.276Z,96980.00
2022-12-16T17:38:16.715Z,96989.00
2022-12-16T17:43:36.987Z,96988.00
2022-12-16T17:48:56.362Z,96996.00
2022-12-16T17:54:22.671Z,97007.00
2022-12-16T17:59:44.834Z,97004.00
2022-12-16T18:05:04.417Z,97016.00
2022-12-16T18:10:25.115Z,97034.00
2022-12-16T18:15:44.602Z,97039.00
2022-12-16T18:21:03.797Z,97052.00
2022-12-16T18:26:25.607Z,97052.00
2022-12-16T18:31:45.099Z,97059.00
2022-12-16T18:37:04.624Z,97062.00
2022-12-16T18:42:24.234Z,97069.00
2022-12-16T18:47:43.629Z,97070.00
2022-12-16T18:53:03.102Z,97078.00
2022-12-16T18:58:49.543Z,97079.00
2022-12-16T19:04:11.741Z,97082.00
2022-12-16T19:09:31.301Z,97087.00
2022-12-16T19:14:50.627Z,97094.00
2022-12-16T19:20:10.086Z,97103.00
2022-12-16T19:25:29.555Z,97113.00
2022-12-16T19:32:01.502Z,97116.00
2022-12-16T19:37:21.433Z,97119.00
2022-12-16T19:42:41.041Z,97129.00
2022-12-16T19:48:00.896Z,97136.00
2022-12-16T19:53:20.401Z,97147.00
2022-12-16T19:58:40.296Z,97150.00
2022-12-16T20:03:59.844Z,97150.00
2022-12-16T20:09:20.289Z,97159.00
2022-12-16T20:14:39.943Z,97174.00
2022-12-16T20:19:59.449Z,97172.00
2022-12-16T20:25:19.154Z,97175.00
2022-12-16T20:30:38.676Z,97169.00
2022-12-16T20:35:58.174Z,97182.00
2022-12-16T20:41:19.541Z,97180.00
2022-12-16T20:46:39.037Z,97190.00
2022-12-16T20:51:58.524Z,97194.00
2022-12-16T20:57:18.020Z,97198.00
2022-12-16T21:02:37.640Z,97215.00
2022-12-16T21:07:57.011Z,97217.00
2022-12-16T21:14:57.320Z,97213.00
2022-12-16T21:20:16.732Z,97229.00
2022-12-16T21:25:36.308Z,97236.00
2022-12-16T21:30:55.943Z,97245.00
2022-12-16T21:36:15.938Z,97237.00
2022-12-16T21:41:35.726Z,97249.00
2022-12-16T21:46:55.336Z,97241.00
2022-12-16T21:52:16.370Z,97267.00
2022-12-16T21:57:35.778Z,97272.00
2022-12-16T22:02:55.751Z,97283.00
2022-12-16T22:08:15.732Z,97295.00
2022-12-16T22:13:35.570Z,97293.00
2022-12-16T22:18:56.135Z,97302.00
2022-12-16T22:24:15.723Z,97307.00
2022-12-16T22:29:35.240Z,97307.00
2022-12-16T22:34:54.698Z,97313.00
2022-12-16T22:40:15.024Z,97314.00
2022-12-16T22:45:34.467Z,97331.00
2022-12-16T22:50:54.062Z,97334.00
2022-12-16T22:56:16.019Z,97341.00
2022-12-16T23:01:35.582Z,97353.00
2022-12-16T23:06:56.187Z,97359.00
2022-12-16T23:12:15.782Z,97362.00
2022-12-16T23:17:35.131Z,97362.00
2022-12-16T23:22:54.895Z,97359.00
2022-12-16T23:28:15.937Z,97374.00
2022-12-16T23:33:36.136Z,97371.00
2022-12-16T23:38:55.529Z,97376.00
2022-12-16T23:44:16.135Z,97371.00
2022-12-16T23:49:35.891Z,97387.00
2022-12-16T23:54:55.563Z,97378.00
